Crestline Heights, Alabama
Current Conditions -  °F | °C
As of 8:53 AM on Friday 28 Nov 2014 (Local Time) from KBHM Reporting Station
Clear Clear  
Wind Chill: 36°   Ceiling: Unl
Heat Index: 36°   Visibility: 10mi
Dew Point: 24°   Wind: 0mph
Humidity: 62%   Direction: NA
Pressure: 30.48"   Gusts: NA
Location:  33.5082°N, 86.7399°W
Report Text: KBHM 281453Z 00000KT 10SM CLR 02/M04 A3048 RMK AO2 SLP324 T00221044 50008
Loading
Personal Weather Stations






























Interactive Weather Map New forecast layout! Learn more

10-Day Weather Forecast

Advertisements
Track Severe Weather on mobile